sensor_id;sensor_type;location;lat;lon;timestamp;pressure;altitude;pressure_sealevel;temperature;humidity
77321;BME280;66382;52.252;8.780;2023-04-01T00:01:59;98450.28;;;10.31;73.38
77321;BME280;66382;52.252;8.780;2023-04-01T00:04:25;98450.06;;;10.32;73.51
77321;BME280;66382;52.252;8.780;2023-04-01T00:06:51;98447.88;;;10.29;73.48
77321;BME280;66382;52.252;8.780;2023-04-01T00:09:18;98439.94;;;10.23;73.22
77321;BME280;66382;52.252;8.780;2023-04-01T00:11:44;98455.91;;;10.29;73.87
77321;BME280;66382;52.252;8.780;2023-04-01T00:14:09;98452.97;;;10.31;73.55
77321;BME280;66382;52.252;8.780;2023-04-01T00:16:35;98450.88;;;10.33;74.06
77321;BME280;66382;52.252;8.780;2023-04-01T00:19:01;98446.91;;;10.36;73.62
77321;BME280;66382;52.252;8.780;2023-04-01T00:21:27;98444.81;;;10.38;73.97
77321;BME280;66382;52.252;8.780;2023-04-01T00:23:52;98447.75;;;10.36;74.18
77321;BME280;66382;52.252;8.780;2023-04-01T00:26:20;98442.63;;;10.35;74.00
77321;BME280;66382;52.252;8.780;2023-04-01T00:28:46;98449.59;;;10.36;73.71
77321;BME280;66382;52.252;8.780;2023-04-01T00:31:13;98451.81;;;10.39;74.05
77321;BME280;66382;52.252;8.780;2023-04-01T00:33:39;98439.13;;;10.34;73.32
77321;BME280;66382;52.252;8.780;2023-04-01T00:36:07;98442.72;;;10.40;73.92
77321;BME280;66382;52.252;8.780;2023-04-01T00:38:32;98443.53;;;10.40;73.85
77321;BME280;66382;52.252;8.780;2023-04-01T00:40:59;98452.94;;;10.43;73.51
77321;BME280;66382;52.252;8.780;2023-04-01T00:43:26;98447.59;;;10.43;73.14
77321;BME280;66382;52.252;8.780;2023-04-01T00:45:52;98440.03;;;10.40;73.49
77321;BME280;66382;52.252;8.780;2023-04-01T00:48:20;98436.19;;;10.36;73.43
77321;BME280;66382;52.252;8.780;2023-04-01T00:50:50;98430.38;;;10.39;73.51
77321;BME280;66382;52.252;8.780;2023-04-01T00:53:18;98434.69;;;10.40;73.24
77321;BME280;66382;52.252;8.780;2023-04-01T00:55:49;98439.56;;;10.43;73.11
77321;BME280;66382;52.252;8.780;2023-04-01T00:58:21;98435.25;;;10.42;72.72
77321;BME280;66382;52.252;8.780;2023-04-01T01:00:50;98428.63;;;10.32;73.44
77321;BME280;66382;52.252;8.780;2023-04-01T01:03:16;98434.91;;;10.38;73.89
77321;BME280;66382;52.252;8.780;2023-04-01T01:05:55;98441.09;;;10.39;72.94
77321;BME280;66382;52.252;8.780;2023-04-01T01:08:32;98442.47;;;10.41;72.99
77321;BME280;66382;52.252;8.780;2023-04-01T01:11:05;98428.63;;;10.32;73.47
77321;BME280;66382;52.252;8.780;2023-04-01T01:13:36;98444.31;;;10.41;72.86
77321;BME280;66382;52.252;8.780;2023-04-01T01:16:10;98432.94;;;10.33;73.14
77321;BME280;66382;52.252;8.780;2023-04-01T01:18:45;98430.03;;;10.35;72.67
77321;BME280;66382;52.252;8.780;2023-04-01T01:21:46;98442.72;;;10.40;73.33
77321;BME280;66382;52.252;8.780;2023-04-01T01:24:40;98433.06;;;10.39;72.79
77321;BME280;66382;52.252;8.780;2023-04-01T01:27:10;98439.72;;;10.36;73.27
77321;BME280;66382;52.252;8.780;2023-04-01T01:29:49;98438.88;;;10.36;72.82
77321;BME280;66382;52.252;8.780;2023-04-01T01:35:20;98434.69;;;10.28;73.32
77321;BME280;66382;52.252;8.780;2023-04-01T01:37:51;98438.41;;;10.27;73.22
77321;BME280;66382;52.252;8.780;2023-04-01T01:40:18;98435.72;;;10.27;73.64
77321;BME280;66382;52.252;8.780;2023-04-01T01:42:47;98434.94;;;10.26;73.56
77321;BME280;66382;52.252;8.780;2023-04-01T01:45:16;98432.25;;;10.26;73.44
77321;BME280;66382;52.252;8.780;2023-04-01T01:47:43;98403.75;;;10.08;73.71
77321;BME280;66382;52.252;8.780;2023-04-01T01:50:11;98434.00;;;10.32;73.43
77321;BME280;66382;52.252;8.780;2023-04-01T01:52:39;98435.88;;;10.32;73.42
77321;BME280;66382;52.252;8.780;2023-04-01T01:55:23;98435.88;;;10.32;72.45
77321;BME280;66382;52.252;8.780;2023-04-01T01:57:51;98435.59;;;10.33;73.02
77321;BME280;66382;52.252;8.780;2023-04-01T02:00:18;98436.69;;;10.32;73.28
77321;BME280;66382;52.252;8.780;2023-04-01T02:02:46;98437.75;;;10.31;73.95
77321;BME280;66382;52.252;8.780;2023-04-01T02:05:16;98431.53;;;10.31;72.85
77321;BME280;66382;52.252;8.780;2023-04-01T02:07:48;98430.72;;;10.30;73.16
77321;BME280;66382;52.252;8.780;2023-04-01T02:10:15;98434.47;;;10.29;73.75
77321;BME280;66382;52.252;8.780;2023-04-01T02:12:44;98433.66;;;10.29;73.36
77321;BME280;66382;52.252;8.780;2023-04-01T02:15:14;98429.94;;;10.30;73.67
77321;BME280;66382;52.252;8.780;2023-04-01T02:17:43;98416.31;;;10.20;73.46
77321;BME280;66382;52.252;8.780;2023-04-01T02:20:13;98424.00;;;10.28;73.42
77321;BME280;66382;52.252;8.780;2023-04-01T02:22:45;98392.91;;;10.15;73.62
77321;BME280;66382;52.252;8.780;2023-04-01T02:25:14;98427.03;;;10.31;73.39
77321;BME280;66382;52.252;8.780;2023-04-01T02:27:43;98431.53;;;10.31;72.97
77321;BME280;66382;52.252;8.780;2023-04-01T02:30:11;98431.19;;;10.27;73.75
77321;BME280;66382;52.252;8.780;2023-04-01T02:32:38;98441.09;;;10.27;73.39
77321;BME280;66382;52.252;8.780;2023-04-01T02:35:06;98434.69;;;10.28;73.99
77321;BME280;66382;52.252;8.780;2023-04-01T02:37:32;98439.03;;;10.29;73.65
77321;BME280;66382;52.252;8.780;2023-04-01T02:40:01;98424.56;;;10.30;73.80
77321;BME280;66382;52.252;8.780;2023-04-01T02:42:27;98429.69;;;10.31;73.84
77321;BME280;66382;52.252;8.780;2023-04-01T02:44:53;98432.38;;;10.31;73.13
77321;BME280;66382;52.252;8.780;2023-04-01T02:47:18;98431.81;;;10.29;73.58
77321;BME280;66382;52.252;8.780;2023-04-01T02:49:44;98437.16;;;10.29;73.17
77321;BME280;66382;52.252;8.780;2023-04-01T02:52:10;98434.09;;;10.26;73.95
77321;BME280;66382;52.252;8.780;2023-04-01T02:54:35;98437.03;;;10.24;72.77
77321;BME280;66382;52.252;8.780;2023-04-01T02:57:03;98434.47;;;10.18;73.89
77321;BME280;66382;52.252;8.780;2023-04-01T02:59:28;98441.44;;;10.19;73.98
77321;BME280;66382;52.252;8.780;2023-04-01T03:01:54;98434.69;;;10.16;73.61
77321;BME280;66382;52.252;8.780;2023-04-01T03:04:20;98441.91;;;10.16;74.36
77321;BME280;66382;52.252;8.780;2023-04-01T03:06:45;98442.97;;;10.15;73.63
77321;BME280;66382;52.252;8.780;2023-04-01T03:09:11;98446.69;;;10.13;73.61
77321;BME280;66382;52.252;8.780;2023-04-01T03:11:37;98437.28;;;10.11;73.26
77321;BME280;66382;52.252;8.780;2023-04-01T03:14:04;98441.81;;;10.10;74.15
77321;BME280;66382;52.252;8.780;2023-04-01T03:16:30;98439.41;;;10.09;73.32
77321;BME280;66382;52.252;8.780;2023-04-01T03:18:55;98441.00;;;10.10;73.75
77321;BME280;66382;52.252;8.780;2023-04-01T03:21:22;98443.69;;;10.10;74.00
77321;BME280;66382;52.252;8.780;2023-04-01T03:23:49;98445.31;;;10.11;74.25
77321;BME280;66382;52.252;8.780;2023-04-01T03:26:15;98444.84;;;10.14;74.71
77321;BME280;66382;52.252;8.780;2023-04-01T03:28:42;98448.09;;;10.16;74.12
77321;BME280;66382;52.252;8.780;2023-04-01T03:31:09;98446.25;;;10.17;73.21
77321;BME280;66382;52.252;8.780;2023-04-01T03:33:36;98441.13;;;10.15;73.01
77321;BME280;66382;52.252;8.780;2023-04-01T03:36:02;98445.06;;;10.12;73.87
77321;BME280;66382;52.252;8.780;2023-04-01T03:38:28;98446.38;;;10.10;74.31
77321;BME280;66382;52.252;8.780;2023-04-01T03:40:56;98450.09;;;10.09;73.51
77321;BME280;66382;52.252;8.780;2023-04-01T03:43:22;98446.38;;;10.10;74.45
77321;BME280;66382;52.252;8.780;2023-04-01T03:45:49;98447.16;;;10.10;74.07
77321;BME280;66382;52.252;8.780;2023-04-01T03:48:17;98434.84;;;10.09;74.19
77321;BME280;66382;52.252;8.780;2023-04-01T03:50:43;98445.06;;;10.12;73.18
77321;BME280;66382;52.252;8.780;2023-04-01T03:53:10;98443.47;;;10.11;73.93
77321;BME280;66382;52.252;8.780;2023-04-01T03:55:36;98422.06;;;10.00;74.21
77321;BME280;66382;52.252;8.780;2023-04-01T03:58:02;98447.53;;;10.14;74.21
77321;BME280;66382;52.252;8.780;2023-04-01T04:00:28;98452.88;;;10.14;73.81
77321;BME280;66382;52.252;8.780;2023-04-01T04:02:54;98446.69;;;10.13;74.17
77321;BME280;66382;52.252;8.780;2023-04-01T04:05:21;98448.56;;;10.13;73.25
77321;BME280;66382;52.252;8.780;2023-04-01T04:07:47;98451.50;;;10.11;73.97
77321;BME280;66382;52.252;8.780;2023-04-01T04:10:12;98452.53;;;10.10;74.13
77321;BME280;66382;52.252;8.780;2023-04-01T04:12:38;98457.66;;;10.12;73.86
77321;BME280;66382;52.252;8.780;2023-04-01T04:15:05;98455.19;;;10.10;73.45
77321;BME280;66382;52.252;8.780;2023-04-01T04:17:31;98457.06;;;10.10;73.99
77321;BME280;66382;52.252;8.780;2023-04-01T04:19:56;98459.75;;;10.10;74.47
77321;BME280;66382;52.252;8.780;2023-04-01T04:22:23;98453.00;;;10.07;74.48
77321;BME280;66382;52.252;8.780;2023-04-01T04:24:49;98461.03;;;10.07;74.08
77321;BME280;66382;52.252;8.780;2023-04-01T04:27:15;98449.97;;;10.04;73.44
77321;BME280;66382;52.252;8.780;2023-04-01T04:29:41;98453.47;;;10.04;73.76
77321;BME280;66382;52.252;8.780;2023-04-01T04:32:06;98454.28;;;10.05;73.75
77321;BME280;66382;52.252;8.780;2023-04-01T04:34:32;98459.88;;;10.03;74.07
77321;BME280;66382;52.252;8.780;2023-04-01T04:36:58;98468.72;;;10.04;74.05
77321;BME280;66382;52.252;8.780;2023-04-01T04:39:25;98459.28;;;10.01;74.35
77321;BME280;66382;52.252;8.780;2023-04-01T04:41:51;98467.44;;;10.06;73.90
77321;BME280;66382;52.252;8.780;2023-04-01T04:44:17;98470.94;;;10.07;74.29
77321;BME280;66382;52.252;8.780;2023-04-01T04:46:43;98453.13;;;10.01;74.54
77321;BME280;66382;52.252;8.780;2023-04-01T04:49:09;98459.66;;;10.05;74.17
77321;BME280;66382;52.252;8.780;2023-04-01T04:51:35;98470.47;;;10.10;73.98
77321;BME280;66382;52.252;8.780;2023-04-01T04:54:00;98463.50;;;10.09;73.60
77321;BME280;66382;52.252;8.780;2023-04-01T04:56:27;98465.81;;;10.05;73.95
77321;BME280;66382;52.252;8.780;2023-04-01T04:58:53;98474.66;;;10.06;74.38
77321;BME280;66382;52.252;8.780;2023-04-01T05:01:19;98471.38;;;10.04;74.11
77321;BME280;66382;52.252;8.780;2023-04-01T05:03:46;98475.13;;;10.03;74.54
77321;BME280;66382;52.252;8.780;2023-04-01T05:06:13;98468.38;;;10.00;74.49
77321;BME280;66382;52.252;8.780;2023-04-01T05:08:39;98473.50;;;10.02;74.78
77321;BME280;66382;52.252;8.780;2023-04-01T05:11:07;98477.47;;;9.99;73.87
77321;BME280;66382;52.252;8.780;2023-04-01T05:13:36;98469.66;;;9.98;74.16
77321;BME280;66382;52.252;8.780;2023-04-01T05:16:02;98479.91;;;10.01;74.58
77321;BME280;66382;52.252;8.780;2023-04-01T05:18:27;98480.69;;;10.01;74.72
77321;BME280;66382;52.252;8.780;2023-04-01T05:20:54;98471.63;;;10.02;74.03
77321;BME280;66382;52.252;8.780;2023-04-01T05:23:21;98483.75;;;10.05;74.20
77321;BME280;66382;52.252;8.780;2023-04-01T05:25:48;98481.06;;;10.05;73.94
77321;BME280;66382;52.252;8.780;2023-04-01T05:28:14;98487.22;;;10.05;73.37
77321;BME280;66382;52.252;8.780;2023-04-01T05:30:42;98484.31;;;10.07;73.65
77321;BME280;66382;52.252;8.780;2023-04-01T05:33:08;98483.25;;;10.08;73.24
77321;BME280;66382;52.252;8.780;2023-04-01T05:35:34;98484.53;;;10.05;73.23
77321;BME280;66382;52.252;8.780;2023-04-01T05:38:00;98493.63;;;10.04;74.00
77321;BME280;66382;52.252;8.780;2023-04-01T05:40:26;98495.03;;;10.07;73.19
77321;BME280;66382;52.252;8.780;2023-04-01T05:42:52;98491.28;;;10.08;73.79
77321;BME280;66382;52.252;8.780;2023-04-01T05:45:18;98486.75;;;10.08;74.46
77321;BME280;66382;52.252;8.780;2023-04-01T05:47:45;98490.81;;;10.11;73.70
77321;BME280;66382;52.252;8.780;2023-04-01T05:50:11;98497.00;;;10.11;73.88
77321;BME280;66382;52.252;8.780;2023-04-01T05:52:37;98497.22;;;10.10;73.75
77321;BME280;66382;52.252;8.780;2023-04-01T05:55:03;98496.44;;;10.09;74.36
77321;BME280;66382;52.252;8.780;2023-04-01T05:57:29;98492.09;;;10.08;73.54
77321;BME280;66382;52.252;8.780;2023-04-01T05:59:54;98499.09;;;10.09;74.29
77321;BME280;66382;52.252;8.780;2023-04-01T06:02:20;98514.34;;;10.09;73.51
77321;BME280;66382;52.252;8.780;2023-04-01T06:04:49;98512.72;;;10.08;73.67
77321;BME280;66382;52.252;8.780;2023-04-01T06:07:20;98511.09;;;10.07;73.76
77321;BME280;66382;52.252;8.780;2023-04-01T06:09:46;98507.25;;;10.03;74.32
77321;BME280;66382;52.252;8.780;2023-04-01T06:12:45;98516.44;;;10.07;73.56
77321;BME280;66382;52.252;8.780;2023-04-01T06:15:22;98515.88;;;10.05;73.58
77321;BME280;66382;52.252;8.780;2023-04-01T06:18:03;98512.28;;;9.99;73.44
77321;BME280;66382;52.252;8.780;2023-04-01T06:20:40;98512.00;;;10.01;73.89
77321;BME280;66382;52.252;8.780;2023-04-01T06:26:20;98521.44;;;10.03;73.28
77321;BME280;66382;52.252;8.780;2023-04-01T06:29:32;98530.28;;;10.04;73.45
77321;BME280;66382;52.252;8.780;2023-04-01T06:32:22;98525.19;;;10.02;73.33
77321;BME280;66382;52.252;8.780;2023-04-01T06:38:11;98536.34;;;9.99;73.21
77321;BME280;66382;52.252;8.780;2023-04-01T06:41:00;98537.06;;;9.95;73.77
77321;BME280;66382;52.252;8.780;2023-04-01T06:43:37;98536.47;;;9.93;73.93
77321;BME280;66382;52.252;8.780;2023-04-01T06:46:12;98540.75;;;9.94;74.26
77321;BME280;66382;52.252;8.780;2023-04-01T06:48:53;98538.66;;;9.96;73.80
77321;BME280;66382;52.252;8.780;2023-04-01T06:51:26;98539.25;;;9.98;74.18
77321;BME280;66382;52.252;8.780;2023-04-01T06:54:03;98543.91;;;10.02;73.60
77321;BME280;66382;52.252;8.780;2023-04-01T06:56:32;98542.63;;;10.05;74.23
77321;BME280;66382;52.252;8.780;2023-04-01T06:59:00;98538.69;;;10.07;74.50
77321;BME280;66382;52.252;8.780;2023-04-01T07:01:30;98536.59;;;10.09;74.38
77321;BME280;66382;52.252;8.780;2023-04-01T07:04:01;98545.31;;;10.17;74.75
77321;BME280;66382;52.252;8.780;2023-04-01T07:06:32;98545.88;;;10.19;73.94
77321;BME280;66382;52.252;8.780;2023-04-01T07:09:05;98549.13;;;10.21;73.42
77321;BME280;66382;52.252;8.780;2023-04-01T07:11:35;98555.88;;;10.23;74.17
77321;BME280;66382;52.252;8.780;2023-04-01T07:14:05;98558.13;;;10.26;74.04
77321;BME280;66382;52.252;8.780;2023-04-01T07:16:35;98558.47;;;10.30;73.73
77321;BME280;66382;52.252;8.780;2023-04-01T07:19:08;98558.38;;;10.37;74.08
77321;BME280;66382;52.252;8.780;2023-04-01T07:21:41;98548.78;;;10.41;73.96
77321;BME280;66382;52.252;8.780;2023-04-01T07:24:15;98557.41;;;10.43;74.49
77321;BME280;66382;52.252;8.780;2023-04-01T07:26:43;98561.38;;;10.52;74.34
77321;BME280;66382;52.252;8.780;2023-04-01T07:29:11;98562.88;;;10.60;74.69
77321;BME280;66382;52.252;8.780;2023-04-01T07:31:49;98562.97;;;10.65;73.86
77321;BME280;66382;52.252;8.780;2023-04-01T07:34:21;98566.00;;;10.68;73.90
77321;BME280;66382;52.252;8.780;2023-04-01T07:36:53;98567.16;;;10.72;74.13
77321;BME280;66382;52.252;8.780;2023-04-01T07:39:32;98569.94;;;10.77;73.84
77321;BME280;66382;52.252;8.780;2023-04-01T07:42:05;98573.78;;;10.82;74.79
77321;BME280;66382;52.252;8.780;2023-04-01T07:44:40;98579.22;;;10.87;73.78
77321;BME280;66382;52.252;8.780;2023-04-01T07:47:21;98579.56;;;10.90;73.47
77321;BME280;66382;52.252;8.780;2023-04-01T07:50:00;98588.53;;;10.96;73.05
77321;BME280;66382;52.252;8.780;2023-04-01T07:52:33;98584.78;;;10.97;74.48
77321;BME280;66382;52.252;8.780;2023-04-01T07:55:08;98586.19;;;11.00;73.75
77321;BME280;66382;52.252;8.780;2023-04-01T07:57:41;98589.44;;;11.02;74.29
77321;BME280;66382;52.252;8.780;2023-04-01T08:00:12;98594.00;;;11.01;73.83
77321;BME280;66382;52.252;8.780;2023-04-01T08:02:53;98596.09;;;10.99;73.65
77321;BME280;66382;52.252;8.780;2023-04-01T08:05:25;98596.81;;;10.94;73.32
77321;BME280;66382;52.252;8.780;2023-04-01T08:07:59;98603.13;;;10.88;74.08
77321;BME280;66382;52.252;8.780;2023-04-01T08:10:37;98610.34;;;10.88;73.35
77321;BME280;66382;52.252;8.780;2023-04-01T08:13:10;98614.66;;;10.89;74.10
77321;BME280;66382;52.252;8.780;2023-04-01T08:15:44;98617.94;;;10.91;73.18
77321;BME280;66382;52.252;8.780;2023-04-01T08:18:20;98621.91;;;10.88;73.31
77321;BME280;66382;52.252;8.780;2023-04-01T08:20:55;98621.78;;;10.83;74.24
77321;BME280;66382;52.252;8.780;2023-04-01T08:23:22;98624.47;;;10.83;73.42
77321;BME280;66382;52.252;8.780;2023-04-01T08:25:58;98629.59;;;10.85;73.21
77321;BME280;66382;52.252;8.780;2023-04-01T08:28:31;98634.34;;;10.83;73.49
77321;BME280;66382;52.252;8.780;2023-04-01T08:31:01;98639.50;;;10.84;73.65
77321;BME280;66382;52.252;8.780;2023-04-01T08:33:29;98637.03;;;10.83;73.90
77321;BME280;66382;52.252;8.780;2023-04-01T08:35:59;98636.13;;;10.77;73.99
77321;BME280;66382;52.252;8.780;2023-04-01T08:38:30;98642.88;;;10.80;74.09
77321;BME280;66382;52.252;8.780;2023-04-01T08:41:01;98640.19;;;10.80;74.07
77321;BME280;66382;52.252;8.780;2023-04-01T08:43:51;98640.19;;;10.80;73.59
77321;BME280;66382;52.252;8.780;2023-04-01T08:46:47;98645.91;;;10.83;74.24
77321;BME280;66382;52.252;8.780;2023-04-01T08:52:27;98653.00;;;10.89;73.26
77321;BME280;66382;52.252;8.780;2023-04-01T08:55:31;98656.50;;;10.90;73.63
77321;BME280;66382;52.252;8.780;2023-04-01T08:58:20;98657.09;;;10.92;74.27
77321;BME280;66382;52.252;8.780;2023-04-01T09:00:53;98661.41;;;10.93;74.38
77321;BME280;66382;52.252;8.780;2023-04-01T09:06:24;98663.63;;;10.96;74.57
77321;BME280;66382;52.252;8.780;2023-04-01T09:11:59;98670.38;;;10.98;74.05
77321;BME280;66382;52.252;8.780;2023-04-01T09:14:42;98664.53;;;10.90;74.45
77321;BME280;66382;52.252;8.780;2023-04-01T09:17:41;98670.16;;;10.88;74.60
77321;BME280;66382;52.252;8.780;2023-04-01T09:20:46;98672.00;;;10.88;74.57
77321;BME280;66382;52.252;8.780;2023-04-01T09:23:36;98673.06;;;10.87;74.51
77321;BME280;66382;52.252;8.780;2023-04-01T09:29:05;98681.69;;;10.89;74.51
77321;BME280;66382;52.252;8.780;2023-04-01T09:34:53;98678.53;;;10.92;74.80
77321;BME280;66382;52.252;8.780;2023-04-01T09:37:20;98683.41;;;10.95;74.59
77321;BME280;66382;52.252;8.780;2023-04-01T09:43:00;98696.00;;;11.06;73.36
77321;BME280;66382;52.252;8.780;2023-04-01T09:45:37;98690.63;;;11.06;73.92
77321;BME280;66382;52.252;8.780;2023-04-01T09:48:19;98696.00;;;11.06;73.50
77321;BME280;66382;52.252;8.780;2023-04-01T09:50:54;98701.13;;;11.08;74.26
77321;BME280;66382;52.252;8.780;2023-04-01T09:53:41;98708.72;;;11.11;73.32
77321;BME280;66382;52.252;8.780;2023-04-01T09:57:02;98702.84;;;11.14;73.86
77321;BME280;66382;52.252;8.780;2023-04-01T10:12:39;98725.13;;;11.26;75.21
77321;BME280;66382;52.252;8.780;2023-04-01T10:15:33;98719.84;;;11.31;74.04
77321;BME280;66382;52.252;8.780;2023-04-01T10:21:08;98725.22;;;11.31;74.44
77321;BME280;66382;52.252;8.780;2023-04-01T10:26:42;98724.38;;;11.43;74.08
77321;BME280;66382;52.252;8.780;2023-04-01T10:29:43;98728.06;;;11.53;74.23
77321;BME280;66382;52.252;8.780;2023-04-01T10:41:45;98721.78;;;12.17;74.41
77321;BME280;66382;52.252;8.780;2023-04-01T10:44:40;98737.06;;;12.33;75.02
77321;BME280;66382;52.252;8.780;2023-04-01T10:50:31;98728.22;;;12.50;73.56
77321;BME280;66382;52.252;8.780;2023-04-01T10:56:32;98722.91;;;12.55;73.87
77321;BME280;66382;52.252;8.780;2023-04-01T10:59:13;98726.56;;;12.65;73.77
77321;BME280;66382;52.252;8.780;2023-04-01T11:05:32;98731.50;;;12.90;73.43
77321;BME280;66382;52.252;8.780;2023-04-01T11:15:08;98740.47;;;13.57;74.30
77321;BME280;66382;52.252;8.780;2023-04-01T11:18:05;98728.25;;;13.71;73.69
77321;BME280;66382;52.252;8.780;2023-04-01T11:21:11;98741.25;;;13.80;73.48
77321;BME280;66382;52.252;8.780;2023-04-01T11:23:50;98741.91;;;13.65;71.02
77321;BME280;66382;52.252;8.780;2023-04-01T11:26:31;98744.44;;;13.49;71.97
77321;BME280;66382;52.252;8.780;2023-04-01T11:29:18;98747.50;;;13.36;71.94
77321;BME280;66382;52.252;8.780;2023-04-01T11:31:59;98759.25;;;13.30;71.98
77321;BME280;66382;52.252;8.780;2023-04-01T11:34:44;98753.31;;;13.28;72.47
77321;BME280;66382;52.252;8.780;2023-04-01T11:37:29;98759.16;;;13.25;72.47
77321;BME280;66382;52.252;8.780;2023-04-01T11:40:08;98758.84;;;13.21;72.59
77321;BME280;66382;52.252;8.780;2023-04-01T11:42:42;98763.41;;;13.21;72.07
77321;BME280;66382;52.252;8.780;2023-04-01T11:45:19;98766.13;;;13.21;72.97
77321;BME280;66382;52.252;8.780;2023-04-01T11:48:03;98760.00;;;13.25;72.46
77321;BME280;66382;52.252;8.780;2023-04-01T11:50:45;98767.31;;;13.30;71.56
77321;BME280;66382;52.252;8.780;2023-04-01T11:53:24;98770.66;;;13.20;72.09
77321;BME280;66382;52.252;8.780;2023-04-01T11:56:01;98775.50;;;13.18;71.73
77321;BME280;66382;52.252;8.780;2023-04-01T11:58:58;98780.38;;;13.21;72.63
77321;BME280;66382;52.252;8.780;2023-04-01T12:01:36;98784.44;;;13.24;71.89
77321;BME280;66382;52.252;8.780;2023-04-01T12:04:30;98778.25;;;13.23;71.96
77321;BME280;66382;52.252;8.780;2023-04-01T12:07:08;98783.13;;;13.26;71.46
77321;BME280;66382;52.252;8.780;2023-04-01T12:09:48;98775.28;;;13.25;71.94
77321;BME280;66382;52.252;8.780;2023-04-01T12:12:24;98779.31;;;13.22;71.91
77321;BME280;66382;52.252;8.780;2023-04-01T12:15:02;98784.44;;;13.24;71.86
77321;BME280;66382;52.252;8.780;2023-04-01T12:17:38;98789.03;;;13.23;71.89
77321;BME280;66382;52.252;8.780;2023-04-01T12:20:22;98792.75;;;13.22;72.10
77321;BME280;66382;52.252;8.780;2023-04-01T12:23:02;98798.63;;;13.19;71.21
77321;BME280;66382;52.252;8.780;2023-04-01T12:28:41;98808.84;;;13.00;72.26
77321;BME280;66382;52.252;8.780;2023-04-01T12:31:19;98810.34;;;12.91;71.92
77321;BME280;66382;52.252;8.780;2023-04-01T12:34:04;98820.84;;;12.93;71.89
77321;BME280;66382;52.252;8.780;2023-04-01T12:36:43;98811.56;;;12.83;72.30
77321;BME280;66382;52.252;8.780;2023-04-01T12:39:27;98826.63;;;12.84;72.20
77321;BME280;66382;52.252;8.780;2023-04-01T12:42:01;98831.44;;;12.82;72.59
77321;BME280;66382;52.252;8.780;2023-04-01T12:44:40;98830.84;;;12.80;72.52
77321;BME280;66382;52.252;8.780;2023-04-01T12:47:39;98832.66;;;12.75;72.95
77321;BME280;66382;52.252;8.780;2023-04-01T12:50:28;98838.66;;;12.65;72.61
77321;BME280;66382;52.252;8.780;2023-04-01T12:53:11;98836.63;;;12.55;72.41
77321;BME280;66382;52.252;8.780;2023-04-01T12:55:44;98837.44;;;12.56;72.96
77321;BME280;66382;52.252;8.780;2023-04-01T12:58:42;98844.44;;;12.57;72.39
77321;BME280;66382;52.252;8.780;2023-04-01T13:01:29;98848.19;;;12.56;73.03
77321;BME280;66382;52.252;8.780;2023-04-01T13:04:11;98849.25;;;12.55;73.37
77321;BME280;66382;52.252;8.780;2023-04-01T13:09:41;98859.34;;;12.47;72.81
77321;BME280;66382;52.252;8.780;2023-04-01T13:12:28;98860.63;;;12.45;73.03
77321;BME280;66382;52.252;8.780;2023-04-01T13:15:22;98861.72;;;12.44;72.90
77321;BME280;66382;52.252;8.780;2023-04-01T13:17:53;98866.25;;;12.43;72.97
77321;BME280;66382;52.252;8.780;2023-04-01T13:20:31;98872.59;;;12.37;72.99
77321;BME280;66382;52.252;8.780;2023-04-01T13:23:09;98876.47;;;12.30;73.25
77321;BME280;66382;52.252;8.780;2023-04-01T13:25:43;98870.66;;;12.21;72.72
77321;BME280;66382;52.252;8.780;2023-04-01T13:28:16;98873.72;;;12.13;72.78
77321;BME280;66382;52.252;8.780;2023-04-01T13:30:49;98872.56;;;12.09;73.27
77321;BME280;66382;52.252;8.780;2023-04-01T13:33:26;98877.72;;;12.10;73.00
77321;BME280;66382;52.252;8.780;2023-04-01T13:36:04;98878.28;;;12.12;73.22
77321;BME280;66382;52.252;8.780;2023-04-01T13:38:48;98882.13;;;12.16;73.04
77321;BME280;66382;52.252;8.780;2023-04-01T13:41:31;98892.50;;;12.24;72.94
77321;BME280;66382;52.252;8.780;2023-04-01T13:44:06;98895.03;;;12.31;72.83
77321;BME280;66382;52.252;8.780;2023-04-01T13:46:46;98891.31;;;12.32;72.60
77321;BME280;66382;52.252;8.780;2023-04-01T13:52:19;98901.56;;;12.35;72.61
77321;BME280;66382;52.252;8.780;2023-04-01T13:55:14;98901.28;;;12.48;72.82
77321;BME280;66382;52.252;8.780;2023-04-01T13:57:59;98911.78;;;12.50;72.81
77321;BME280;66382;52.252;8.780;2023-04-01T14:00:40;98912.47;;;12.57;72.89
77321;BME280;66382;52.252;8.780;2023-04-01T14:03:28;98910.94;;;12.61;72.47
77321;BME280;66382;52.252;8.780;2023-04-01T14:06:19;98920.41;;;12.64;72.06
77321;BME280;66382;52.252;8.780;2023-04-01T14:09:03;98922.25;;;12.63;72.63
77321;BME280;66382;52.252;8.780;2023-04-01T14:11:36;98927.06;;;12.61;72.35
77321;BME280;66382;52.252;8.780;2023-04-01T14:14:14;98920.84;;;12.61;72.39
77321;BME280;66382;52.252;8.780;2023-04-01T14:17:09;98933.25;;;12.62;72.14
77321;BME280;66382;52.252;8.780;2023-04-01T14:22:33;98935.19;;;12.50;71.83
77321;BME280;66382;52.252;8.780;2023-04-01T14:25:22;98943.03;;;12.39;71.15
77321;BME280;66382;52.252;8.780;2023-04-01T14:27:58;98948.31;;;12.34;72.06
77321;BME280;66382;52.252;8.780;2023-04-01T14:30:35;98944.56;;;12.35;72.83
77321;BME280;66382;52.252;8.780;2023-04-01T14:33:20;98961.75;;;12.34;72.63
77321;BME280;66382;52.252;8.780;2023-04-01T14:35:49;98955.53;;;12.34;72.28
77321;BME280;66382;52.252;8.780;2023-04-01T14:38:30;98971.34;;;12.30;72.20
77321;BME280;66382;52.252;8.780;2023-04-01T14:41:10;98965.63;;;12.26;71.67
77321;BME280;66382;52.252;8.780;2023-04-01T14:43:48;98975.00;;;12.24;71.95
77321;BME280;66382;52.252;8.780;2023-04-01T14:46:30;98979.78;;;12.22;72.02
77321;BME280;66382;52.252;8.780;2023-04-01T14:49:02;98982.59;;;12.15;71.94
77321;BME280;66382;52.252;8.780;2023-04-01T14:51:32;98981.88;;;12.08;72.30
77321;BME280;66382;52.252;8.780;2023-04-01T14:54:04;98981.06;;;12.08;72.97
77321;BME280;66382;52.252;8.780;2023-04-01T14:56:39;98978.97;;;12.10;72.33
77321;BME280;66382;52.252;8.780;2023-04-01T14:59:09;98992.53;;;12.15;72.25
77321;BME280;66382;52.252;8.780;2023-04-01T15:01:43;98993.22;;;12.22;72.98